Time;durP1;ratioP1;P1;durP2;ratioP2;P2;SDS_P1;SDS_P2;PMS_P1;PMS_P2;Temp;Humidity;BMP_temperature;BMP_pressure;BME280_temperature;BME280_humidity;BME280_pressure;Samples;Min_cycle;Max_cycle;Signal;HPM_P1;HPM_P2
2022/05/04 00:01:40;;;;;;;14.77;5.05;;;;;;;;;;4999488;28;20017;-70
2022/05/04 00:04:06;;;;;;;10.85;4.60;;;;;;;;;;4987443;28;20148;-70
2022/05/04 00:06:31;;;;;;;10.75;4.97;;;;;;;;;;5001015;28;20061;-70
2022/05/04 00:08:56;;;;;;;9.32;4.70;;;;;;;;;;5004799;28;20032;-70
2022/05/04 00:11:21;;;;;;;9.13;4.10;;;;;;;;;;4996819;28;20032;-70
2022/05/04 00:13:47;;;;;;;13.95;5.15;;;;;;;;;;4997831;28;20267;-69
2022/05/04 00:16:12;;;;;;;12.40;5.22;;;;;;;;;;5000725;28;20049;-70
2022/05/04 00:18:37;;;;;;;14.65;5.43;;;;;;;;;;4997865;28;20056;-70
2022/05/04 00:21:02;;;;;;;10.82;6.28;;;;;;;;;;4981214;28;20378;-69
2022/05/04 00:23:27;;;;;;;10.80;4.30;;;;;;;;;;4996643;28;20080;-70
2022/05/04 00:25:53;;;;;;;14.33;5.27;;;;;;;;;;4995316;28;20148;-70
2022/05/04 00:28:18;;;;;;;10.98;5.15;;;;;;;;;;4993595;28;20294;-70
2022/05/04 00:30:43;;;;;;;16.63;5.20;;;;;;;;;;4996196;28;20598;-69
2022/05/04 00:33:09;;;;;;;16.45;5.70;;;;;;;;;;4997169;28;20268;-70
2022/05/04 00:35:34;;;;;;;10.95;5.70;;;;;;;;;;4993817;28;20038;-69
2022/05/04 00:38:00;;;;;;;19.58;6.13;;;;;;;;;;4993305;28;20033;-70
2022/05/04 00:40:25;;;;;;;11.80;4.70;;;;;;;;;;4994504;28;20030;-69
2022/05/04 00:42:50;;;;;;;9.20;4.53;;;;;;;;;;4991704;28;20026;-70
2022/05/04 00:45:15;;;;;;;13.63;5.40;;;;;;;;;;4994019;28;20330;-70
2022/05/04 00:47:40;;;;;;;8.43;4.70;;;;;;;;;;4994138;28;20275;-70
2022/05/04 00:50:06;;;;;;;16.90;4.97;;;;;;;;;;4996688;28;20636;-70
2022/05/04 00:52:36;;;;;;;10.55;5.03;;;;;;;;;;4995391;28;20665;-70
2022/05/04 00:55:02;;;;;;;14.93;5.30;;;;;;;;;;5000399;28;20052;-70
2022/05/04 01:00:11;;;;;;;12.45;5.70;;;;;;;;;;5002041;28;20033;-69
2022/05/04 01:02:38;;;;;;;17.08;5.25;;;;;;;;;;5001621;28;20037;-70
2022/05/04 01:05:03;;;;;;;10.88;4.43;;;;;;;;;;4983182;28;20057;-70
2022/05/04 01:07:28;;;;;;;10.77;5.88;;;;;;;;;;4996897;28;20496;-70
2022/05/04 01:09:53;;;;;;;13.43;4.55;;;;;;;;;;5002258;28;20081;-70
2022/05/04 01:12:22;;;;;;;13.73;4.97;;;;;;;;;;5000643;28;20078;-70
2022/05/04 01:14:47;;;;;;;13.10;4.63;;;;;;;;;;4984403;28;20372;-70
2022/05/04 01:17:12;;;;;;;18.55;5.10;;;;;;;;;;4998849;28;20491;-70
2022/05/04 01:19:37;;;;;;;9.27;4.45;;;;;;;;;;4997323;28;20042;-70
2022/05/04 01:22:03;;;;;;;9.80;4.88;;;;;;;;;;5001782;28;20264;-70
2022/05/04 01:24:28;;;;;;;14.85;5.38;;;;;;;;;;5005017;28;20497;-70
2022/05/04 01:26:53;;;;;;;14.77;4.75;;;;;;;;;;5000023;28;20125;-70
2022/05/04 01:29:18;;;;;;;10.40;4.35;;;;;;;;;;4997700;28;20295;-70
2022/05/04 01:31:44;;;;;;;10.60;4.50;;;;;;;;;;4999422;28;20036;-70
2022/05/04 01:34:09;;;;;;;14.93;5.32;;;;;;;;;;4998415;28;20346;-69
2022/05/04 01:36:34;;;;;;;13.27;5.50;;;;;;;;;;4997730;28;20030;-70
2022/05/04 01:38:59;;;;;;;14.60;4.70;;;;;;;;;;4982703;28;20254;-70
2022/05/04 01:44:08;;;;;;;12.93;5.05;;;;;;;;;;4996939;28;20776;-70
2022/05/04 01:46:33;;;;;;;14.70;4.70;;;;;;;;;;4993895;28;20034;-70
2022/05/04 01:48:59;;;;;;;14.47;5.10;;;;;;;;;;4999980;28;20358;-70
2022/05/04 01:51:24;;;;;;;13.40;4.90;;;;;;;;;;4995339;28;20270;-70
2022/05/04 01:53:49;;;;;;;17.95;4.28;;;;;;;;;;4995609;28;20275;-70
2022/05/04 01:56:14;;;;;;;13.03;5.10;;;;;;;;;;4996434;28;20036;-70
2022/05/04 01:58:39;;;;;;;11.45;4.80;;;;;;;;;;4997043;28;20321;-70
2022/05/04 02:01:06;;;;;;;26.13;5.27;;;;;;;;;;4995550;28;20057;-70
2022/05/04 02:03:31;;;;;;;14.50;5.28;;;;;;;;;;4994419;28;20298;-69
2022/05/04 02:05:56;;;;;;;15.00;4.23;;;;;;;;;;4998483;28;20026;-69
2022/05/04 02:08:21;;;;;;;9.90;4.50;;;;;;;;;;4993362;28;20303;-69
2022/05/04 02:10:46;;;;;;;12.30;4.55;;;;;;;;;;5001685;28;20263;-69
2022/05/04 02:13:12;;;;;;;9.32;4.15;;;;;;;;;;4996824;28;20041;-70
2022/05/04 02:15:37;;;;;;;10.60;4.53;;;;;;;;;;5001545;28;20141;-70
2022/05/04 02:18:02;;;;;;;15.93;5.32;;;;;;;;;;4994094;28;20259;-70
2022/05/04 02:20:27;;;;;;;18.30;5.90;;;;;;;;;;4999663;28;20672;-70
2022/05/04 02:22:52;;;;;;;11.77;4.70;;;;;;;;;;4996027;28;20026;-70
2022/05/04 02:25:18;;;;;;;15.73;4.80;;;;;;;;;;4994193;28;20041;-70
2022/05/04 02:27:43;;;;;;;13.70;5.32;;;;;;;;;;4991973;28;20506;-70
2022/05/04 02:30:08;;;;;;;14.45;5.22;;;;;;;;;;4993583;28;20117;-70
2022/05/04 02:32:33;;;;;;;15.05;4.57;;;;;;;;;;4993523;28;20053;-70
2022/05/04 02:37:54;;;;;;;21.10;4.47;;;;;;;;;;4993931;28;20262;-70
2022/05/04 02:40:20;;;;;;;12.25;4.07;;;;;;;;;;4992868;28;20041;-69
2022/05/04 02:42:46;;;;;;;11.15;4.25;;;;;;;;;;4994580;28;20049;-70
2022/05/04 02:45:11;;;;;;;14.70;4.65;;;;;;;;;;4993961;28;20296;-69
2022/05/04 02:47:37;;;;;;;19.10;5.43;;;;;;;;;;4991377;28;20388;-69
2022/05/04 02:50:02;;;;;;;8.48;3.83;;;;;;;;;;4990457;28;22241;-69
2022/05/04 02:52:27;;;;;;;16.70;4.40;;;;;;;;;;4988526;28;20049;-68
2022/05/04 02:54:53;;;;;;;17.70;4.63;;;;;;;;;;4991964;28;20156;-69
2022/05/04 02:57:18;;;;;;;12.17;4.00;;;;;;;;;;4996189;28;20018;-69
2022/05/04 02:59:43;;;;;;;11.20;4.20;;;;;;;;;;4993694;28;20758;-69
2022/05/04 03:04:52;;;;;;;16.65;5.13;;;;;;;;;;4991567;28;20100;-69
2022/05/04 03:07:18;;;;;;;7.97;3.75;;;;;;;;;;4991018;28;20034;-70
2022/05/04 03:09:43;;;;;;;14.65;5.10;;;;;;;;;;4981621;28;20121;-69
2022/05/04 03:12:08;;;;;;;16.65;5.38;;;;;;;;;;4996170;28;20025;-69
2022/05/04 03:14:33;;;;;;;11.98;4.43;;;;;;;;;;4995832;28;20087;-69
2022/05/04 03:16:58;;;;;;;15.05;4.68;;;;;;;;;;4988530;28;20021;-69
2022/05/04 03:19:24;;;;;;;10.30;4.55;;;;;;;;;;4984174;28;20184;-69
2022/05/04 03:21:50;;;;;;;16.65;4.60;;;;;;;;;;4998339;28;20018;-69
2022/05/04 03:24:15;;;;;;;18.20;5.43;;;;;;;;;;4998490;28;20025;-69
2022/05/04 03:26:40;;;;;;;13.98;4.32;;;;;;;;;;4996371;28;20026;-70
2022/05/04 03:29:06;;;;;;;16.45;4.43;;;;;;;;;;4996385;28;20071;-69
2022/05/04 03:31:31;;;;;;;7.45;3.90;;;;;;;;;;4996374;28;20034;-69
2022/05/04 03:33:56;;;;;;;16.55;4.75;;;;;;;;;;4980809;28;20026;-69
2022/05/04 03:36:22;;;;;;;10.60;3.95;;;;;;;;;;4995208;28;20100;-69
2022/05/04 03:38:47;;;;;;;11.10;4.28;;;;;;;;;;4996382;28;20088;-69
2022/05/04 03:41:12;;;;;;;16.53;4.77;;;;;;;;;;4996435;28;20245;-69
2022/05/04 03:43:37;;;;;;;14.23;4.88;;;;;;;;;;4994232;28;20309;-69
2022/05/04 03:46:12;;;;;;;13.43;4.53;;;;;;;;;;4985763;28;20478;-69
2022/05/04 03:48:37;;;;;;;9.68;4.28;;;;;;;;;;4999833;28;20061;-69
2022/05/04 03:51:02;;;;;;;12.23;4.75;;;;;;;;;;4998181;28;20233;-69
2022/05/04 03:53:27;;;;;;;11.35;4.32;;;;;;;;;;4997943;28;20178;-69
2022/05/04 03:55:52;;;;;;;16.85;5.55;;;;;;;;;;4984992;28;20022;-69
2022/05/04 03:58:18;;;;;;;15.70;4.95;;;;;;;;;;4986018;28;20614;-69
2022/05/04 04:00:43;;;;;;;9.52;3.95;;;;;;;;;;4991863;28;20467;-69
2022/05/04 04:03:08;;;;;;;15.48;5.35;;;;;;;;;;5008411;28;20363;-69
2022/05/04 04:05:33;;;;;;;20.33;4.70;;;;;;;;;;5006355;28;20049;-69
2022/05/04 04:07:59;;;;;;;18.15;6.47;;;;;;;;;;5006489;28;20026;-69
2022/05/04 04:10:24;;;;;;;28.98;6.47;;;;;;;;;;5001729;28;20037;-70
2022/05/04 04:12:49;;;;;;;19.27;4.90;;;;;;;;;;5000799;28;20033;-69
2022/05/04 04:15:15;;;;;;;24.30;5.60;;;;;;;;;;5003642;28;20013;-69
2022/05/04 04:17:40;;;;;;;18.80;5.10;;;;;;;;;;5006211;28;20128;-70
2022/05/04 04:22:49;;;;;;;14.85;5.57;;;;;;;;;;4997832;28;20080;-69
2022/05/04 04:25:16;;;;;;;17.20;5.70;;;;;;;;;;5000184;28;20452;-69
2022/05/04 04:27:41;;;;;;;14.13;6.00;;;;;;;;;;4996508;28;20049;-69
2022/05/04 04:30:06;;;;;;;18.90;5.65;;;;;;;;;;4995115;28;20156;-67
2022/05/04 04:32:31;;;;;;;11.40;5.05;;;;;;;;;;4995548;28;20121;-68
2022/05/04 04:34:57;;;;;;;15.55;4.50;;;;;;;;;;4999163;28;20027;-69
2022/05/04 04:37:22;;;;;;;15.57;5.15;;;;;;;;;;4993459;28;20283;-69
2022/05/04 04:39:47;;;;;;;17.05;5.32;;;;;;;;;;4997065;28;20568;-69
2022/05/04 04:42:13;;;;;;;9.53;4.30;;;;;;;;;;5001148;28;20481;-68
2022/05/04 04:44:38;;;;;;;20.58;4.38;;;;;;;;;;4992966;28;20271;-68
2022/05/04 04:47:03;;;;;;;23.23;5.00;;;;;;;;;;4996285;28;20030;-69
2022/05/04 04:49:28;;;;;;;13.73;4.05;;;;;;;;;;5003062;28;20642;-69
2022/05/04 04:51:54;;;;;;;8.60;4.23;;;;;;;;;;5007796;28;20108;-69
2022/05/04 04:54:19;;;;;;;14.85;4.43;;;;;;;;;;5000343;28;20308;-69
2022/05/04 04:56:44;;;;;;;14.45;5.05;;;;;;;;;;5003651;28;20034;-69
2022/05/04 04:59:09;;;;;;;17.77;5.28;;;;;;;;;;5004480;28;20487;-69
2022/05/04 05:01:35;;;;;;;12.43;5.20;;;;;;;;;;5004346;28;20034;-69
2022/05/04 05:04:00;;;;;;;18.42;6.25;;;;;;;;;;5000510;28;20371;-69
2022/05/04 05:06:27;;;;;;;17.90;6.80;;;;;;;;;;5005139;28;20050;-69
2022/05/04 05:08:53;;;;;;;22.33;6.30;;;;;;;;;;5004983;28;20317;-69
2022/05/04 05:11:18;;;;;;;14.75;5.45;;;;;;;;;;4999624;28;20080;-69
2022/05/04 05:16:27;;;;;;;17.10;5.45;;;;;;;;;;5003742;28;20069;-69
2022/05/04 05:18:52;;;;;;;11.27;4.50;;;;;;;;;;5001299;28;20481;-69
2022/05/04 05:21:18;;;;;;;13.77;4.55;;;;;;;;;;5001758;28;20275;-72
2022/05/04 05:23:43;;;;;;;17.33;5.90;;;;;;;;;;5001120;28;20141;-69
2022/05/04 05:26:08;;;;;;;15.88;4.90;;;;;;;;;;4999968;28;20029;-68
2022/05/04 05:28:33;;;;;;;10.73;4.30;;;;;;;;;;5000775;28;20771;-69
2022/05/04 05:30:59;;;;;;;20.13;5.05;;;;;;;;;;5007546;28;20339;-68
2022/05/04 05:33:24;;;;;;;10.55;4.43;;;;;;;;;;5003268;28;20312;-69
2022/05/04 05:35:50;;;;;;;12.93;5.05;;;;;;;;;;4999890;28;20120;-69
2022/05/04 05:38:15;;;;;;;13.67;5.30;;;;;;;;;;5003148;28;20491;-67
2022/05/04 05:40:41;;;;;;;19.45;4.82;;;;;;;;;;5006718;28;20298;-69
2022/05/04 05:43:06;;;;;;;15.38;4.88;;;;;;;;;;4997611;28;20022;-68
2022/05/04 05:45:32;;;;;;;21.80;4.83;;;;;;;;;;5000346;28;20037;-69
2022/05/04 05:47:57;;;;;;;14.35;5.35;;;;;;;;;;5001465;28;20359;-69
2022/05/04 05:50:22;;;;;;;14.50;4.20;;;;;;;;;;5000331;28;20104;-69
2022/05/04 05:52:47;;;;;;;19.45;4.82;;;;;;;;;;4995498;28;20607;-69
2022/05/04 05:55:12;;;;;;;11.40;4.38;;;;;;;;;;4999564;28;20049;-69
2022/05/04 05:57:38;;;;;;;15.43;5.43;;;;;;;;;;4997588;28;20481;-69
2022/05/04 06:00:04;;;;;;;11.30;4.85;;;;;;;;;;4995531;28;20526;-70
2022/05/04 06:02:29;;;;;;;17.52;4.93;;;;;;;;;;5006826;28;20501;-69
2022/05/04 06:04:55;;;;;;;16.60;5.40;;;;;;;;;;4996826;28;20030;-69
2022/05/04 06:07:20;;;;;;;15.27;5.63;;;;;;;;;;5001759;28;20029;-70
2022/05/04 06:09:45;;;;;;;17.00;4.70;;;;;;;;;;5005613;28;20029;-70
2022/05/04 06:12:10;;;;;;;18.05;5.57;;;;;;;;;;4997927;28;20052;-70
2022/05/04 06:14:36;;;;;;;18.53;5.30;;;;;;;;;;5000651;28;20465;-70
2022/05/04 06:17:01;;;;;;;22.80;5.25;;;;;;;;;;5001651;28;20322;-68
2022/05/04 06:19:26;;;;;;;16.35;4.43;;;;;;;;;;5001700;28;20120;-67
2022/05/04 06:21:51;;;;;;;15.15;4.20;;;;;;;;;;5004139;28;20044;-67
2022/05/04 06:24:16;;;;;;;18.90;5.13;;;;;;;;;;5000457;28;20708;-68
2022/05/04 06:26:41;;;;;;;11.95;4.43;;;;;;;;;;4999925;28;20045;-69
2022/05/04 06:29:06;;;;;;;15.82;5.63;;;;;;;;;;5002071;28;20132;-69
2022/05/04 06:34:15;;;;;;;12.57;5.10;;;;;;;;;;5003630;28;20036;-69
2022/05/04 06:36:41;;;;;;;10.63;4.70;;;;;;;;;;5002402;28;20034;-69
2022/05/04 06:39:07;;;;;;;13.95;4.88;;;;;;;;;;5002540;28;20577;-69
2022/05/04 06:41:33;;;;;;;11.27;5.05;;;;;;;;;;5005724;28;20030;-69
2022/05/04 06:43:58;;;;;;;14.98;5.68;;;;;;;;;;5002473;28;20069;-70
2022/05/04 06:46:23;;;;;;;14.48;4.25;;;;;;;;;;5006284;28;20439;-70
2022/05/04 06:48:49;;;;;;;9.33;4.07;;;;;;;;;;4998927;28;20041;-69
2022/05/04 06:51:14;;;;;;;17.17;5.50;;;;;;;;;;5008451;28;20314;-70
2022/05/04 06:53:39;;;;;;;15.57;4.75;;;;;;;;;;5007095;28;20034;-70
2022/05/04 06:56:04;;;;;;;16.17;5.50;;;;;;;;;;5006747;28;20068;-70
2022/05/04 06:58:30;;;;;;;11.83;4.80;;;;;;;;;;5003496;28;20053;-70
2022/05/04 07:00:55;;;;;;;16.60;6.00;;;;;;;;;;5007058;28;20714;-70
2022/05/04 07:03:21;;;;;;;16.17;4.85;;;;;;;;;;5005229;28;20032;-72
2022/05/04 07:05:46;;;;;;;11.48;4.32;;;;;;;;;;5002955;28;20338;-73
2022/05/04 07:08:11;;;;;;;11.73;4.72;;;;;;;;;;5002956;28;20108;-72
2022/05/04 07:10:37;;;;;;;13.38;5.15;;;;;;;;;;5007296;28;20495;-73
2022/05/04 07:13:02;;;;;;;12.27;4.47;;;;;;;;;;5003135;28;20525;-73
2022/05/04 07:15:27;;;;;;;14.95;4.85;;;;;;;;;;5005767;28;20033;-72
2022/05/04 07:17:53;;;;;;;14.95;4.50;;;;;;;;;;4998347;28;20015;-73
2022/05/04 07:20:18;;;;;;;13.90;5.15;;;;;;;;;;5007769;28;20041;-72
2022/05/04 07:22:43;;;;;;;18.30;5.10;;;;;;;;;;5002680;28;20499;-72
2022/05/04 07:25:09;;;;;;;15.63;4.33;;;;;;;;;;5005311;28;20290;-72
2022/05/04 07:27:34;;;;;;;18.13;5.70;;;;;;;;;;5007309;28;20029;-72
2022/05/04 07:29:59;;;;;;;16.37;4.97;;;;;;;;;;4990866;28;20457;-72
2022/05/04 07:32:24;;;;;;;10.15;4.10;;;;;;;;;;4999845;28;20742;-72
2022/05/04 07:34:49;;;;;;;7.68;4.03;;;;;;;;;;4996083;28;20025;-72
2022/05/04 07:37:14;;;;;;;15.05;4.07;;;;;;;;;;5007650;28;20022;-72
2022/05/04 07:42:24;;;;;;;10.65;4.63;;;;;;;;;;5005167;28;20745;-72
2022/05/04 07:44:59;;;;;;;11.15;4.70;;;;;;;;;;5002040;28;20034;-72
2022/05/04 07:47:25;;;;;;;15.15;4.95;;;;;;;;;;4999986;28;20108;-73
2022/05/04 07:49:50;;;;;;;15.05;4.32;;;;;;;;;;4990731;28;20372;-73
2022/05/04 07:52:16;;;;;;;19.47;5.10;;;;;;;;;;5006849;28;20470;-73
2022/05/04 07:54:41;;;;;;;20.93;5.90;;;;;;;;;;5007151;28;20363;-73
2022/05/04 07:57:08;;;;;;;10.65;4.35;;;;;;;;;;5002965;28;20056;-73
2022/05/04 07:59:33;;;;;;;18.25;5.57;;;;;;;;;;5004870;28;20044;-73
2022/05/04 08:04:42;;;;;;;17.33;5.38;;;;;;;;;;5006700;28;20472;-73
2022/05/04 08:07:07;;;;;;;16.43;4.97;;;;;;;;;;5007533;28;20030;-72
2022/05/04 08:09:36;;;;;;;16.50;6.17;;;;;;;;;;5008468;28;20270;-73
2022/05/04 08:12:01;;;;;;;13.45;5.22;;;;;;;;;;5004835;28;20512;-73
2022/05/04 08:14:26;;;;;;;14.50;5.85;;;;;;;;;;4998380;28;20041;-72
2022/05/04 08:16:51;;;;;;;14.53;5.37;;;;;;;;;;4999454;28;20508;-72
2022/05/04 08:19:17;;;;;;;16.80;5.65;;;;;;;;;;5007731;28;20278;-74
2022/05/04 08:21:42;;;;;;;11.25;4.53;;;;;;;;;;5005082;28;20607;-73
2022/05/04 08:24:07;;;;;;;14.05;6.18;;;;;;;;;;5006063;28;20452;-73
2022/05/04 08:26:33;;;;;;;13.40;6.18;;;;;;;;;;5001631;28;20022;-73
2022/05/04 08:28:58;;;;;;;14.55;5.47;;;;;;;;;;5005282;28;20032;-73
2022/05/04 08:31:23;;;;;;;20.20;6.65;;;;;;;;;;5010942;28;20017;-74
2022/05/04 08:33:49;;;;;;;10.20;5.47;;;;;;;;;;5003986;28;20037;-73
2022/05/04 08:36:15;;;;;;;15.95;5.70;;;;;;;;;;5002886;28;20346;-73
2022/05/04 08:38:40;;;;;;;32.95;6.85;;;;;;;;;;5005185;28;20495;-73
2022/05/04 08:41:06;;;;;;;13.80;6.40;;;;;;;;;;5004432;28;20096;-73
2022/05/04 08:43:32;;;;;;;16.92;6.45;;;;;;;;;;4985069;28;20037;-73
2022/05/04 08:45:59;;;;;;;13.50;6.30;;;;;;;;;;4987290;28;20499;-73
2022/05/04 08:48:24;;;;;;;12.18;6.97;;;;;;;;;;5001537;28;20061;-73
2022/05/04 08:50:50;;;;;;;14.23;6.25;;;;;;;;;;5004337;28;20065;-73
2022/05/04 08:53:16;;;;;;;16.70;6.65;;;;;;;;;;4998922;28;20357;-74
2022/05/04 08:55:41;;;;;;;9.68;5.50;;;;;;;;;;5003085;28;20034;-73
2022/05/04 08:58:07;;;;;;;17.27;7.35;;;;;;;;;;5000870;28;20069;-74
2022/05/04 09:00:32;;;;;;;18.25;6.22;;;;;;;;;;5000983;28;20093;-73
2022/05/04 09:02:57;;;;;;;14.32;7.93;;;;;;;;;;5000743;28;20340;-75
2022/05/04 09:05:26;;;;;;;15.70;5.93;;;;;;;;;;5003171;28;20419;-73
2022/05/04 09:07:53;;;;;;;16.38;6.55;;;;;;;;;;5001017;28;20126;-73
2022/05/04 09:10:19;;;;;;;17.50;7.35;;;;;;;;;;4996354;28;20026;-73
2022/05/04 09:12:45;;;;;;;21.60;6.85;;;;;;;;;;4990655;28;20030;-73
2022/05/04 09:15:21;;;;;;;13.65;7.03;;;;;;;;;;5004186;28;20036;-73
2022/05/04 09:17:47;;;;;;;37.25;8.25;;;;;;;;;;4997872;28;20023;-73
2022/05/04 09:22:56;;;;;;;19.02;7.30;;;;;;;;;;5003240;28;20036;-73
2022/05/04 09:25:23;;;;;;;13.97;6.60;;;;;;;;;;5003451;28;20033;-72
2022/05/04 09:27:48;;;;;;;12.57;6.43;;;;;;;;;;4999498;28;20113;-73
2022/05/04 09:30:14;;;;;;;15.93;6.18;;;;;;;;;;4995405;28;20037;-73
2022/05/04 09:32:42;;;;;;;13.05;7.18;;;;;;;;;;5004771;28;20076;-72
2022/05/04 09:35:11;;;;;;;14.02;6.53;;;;;;;;;;5005522;28;20396;-73
2022/05/04 09:45:51;;;;;;;21.40;7.80;;;;;;;;;;4997892;28;20403;-72
2022/05/04 09:48:26;;;;;;;18.55;7.22;;;;;;;;;;4998666;28;20678;-73
2022/05/04 09:50:56;;;;;;;11.45;6.43;;;;;;;;;;4999917;28;20030;-73
2022/05/04 09:53:26;;;;;;;15.52;7.40;;;;;;;;;;5006140;28;20068;-72
2022/05/04 09:55:52;;;;;;;15.27;6.82;;;;;;;;;;4998618;28;20053;-72
2022/05/04 09:58:18;;;;;;;17.83;8.10;;;;;;;;;;4996595;28;20080;-73
2022/05/04 10:00:44;;;;;;;13.05;7.95;;;;;;;;;;4999760;28;20038;-72
2022/05/04 10:03:09;;;;;;;16.42;7.47;;;;;;;;;;4999582;28;20334;-72
2022/05/04 10:05:37;;;;;;;13.63;8.00;;;;;;;;;;4998300;28;20586;-72
2022/05/04 10:08:02;;;;;;;19.35;7.45;;;;;;;;;;5003221;28;20275;-72
2022/05/04 10:10:27;;;;;;;15.73;7.50;;;;;;;;;;5003017;28;20033;-72
2022/05/04 10:12:52;;;;;;;19.45;7.63;;;;;;;;;;5002869;28;20271;-72
2022/05/04 10:15:18;;;;;;;19.58;8.07;;;;;;;;;;5001927;28;20029;-71
2022/05/04 10:17:53;;;;;;;14.57;6.60;;;;;;;;;;4988216;28;20029;-72
2022/05/04 10:20:23;;;;;;;15.93;7.68;;;;;;;;;;5008604;28;20127;-70
2022/05/04 10:22:54;;;;;;;14.45;7.68;;;;;;;;;;5009045;28;20029;-73
2022/05/04 10:25:22;;;;;;;22.85;9.00;;;;;;;;;;5008739;28;20022;-72
2022/05/04 10:27:48;;;;;;;24.52;7.95;;;;;;;;;;5009664;28;20033;-72
2022/05/04 10:30:31;;;;;;;10.88;7.43;;;;;;;;;;5008438;28;20032;-72
2022/05/04 10:33:18;;;;;;;15.05;8.13;;;;;;;;;;5001596;28;20101;-72
2022/05/04 10:35:48;;;;;;;15.48;8.52;;;;;;;;;;5005697;28;20483;-72
2022/05/04 10:38:29;;;;;;;21.00;9.68;;;;;;;;;;5004471;28;20065;-72
2022/05/04 10:40:58;;;;;;;16.20;8.07;;;;;;;;;;5008579;28;20058;-72
2022/05/04 10:43:50;;;;;;;19.35;8.80;;;;;;;;;;4999745;28;20521;-72
2022/05/04 10:46:17;;;;;;;13.85;8.45;;;;;;;;;;5006223;28;20132;-73
2022/05/04 10:48:54;;;;;;;19.08;8.48;;;;;;;;;;5001396;28;20030;-72
2022/05/04 10:51:21;;;;;;;15.73;8.43;;;;;;;;;;5003521;28;20124;-73
2022/05/04 10:53:53;;;;;;;15.68;7.35;;;;;;;;;;5008537;28;20026;-73
2022/05/04 10:56:19;;;;;;;15.82;7.80;;;;;;;;;;5000620;28;20025;-73
2022/05/04 10:58:45;;;;;;;16.85;7.75;;;;;;;;;;5005734;28;20563;-72
2022/05/04 11:01:16;;;;;;;11.38;7.63;;;;;;;;;;5002005;28;20040;-72
2022/05/04 11:03:49;;;;;;;16.45;8.40;;;;;;;;;;5005647;28;20121;-73
2022/05/04 11:06:22;;;;;;;19.77;8.25;;;;;;;;;;5000342;28;20013;-73
2022/05/04 11:08:48;;;;;;;17.45;8.30;;;;;;;;;;5004999;28;20131;-74
2022/05/04 11:11:13;;;;;;;20.10;9.73;;;;;;;;;;5004149;28;20049;-74
2022/05/04 11:13:42;;;;;;;16.40;8.00;;;;;;;;;;5008272;28;20531;-73
2022/05/04 11:16:07;;;;;;;17.35;8.18;;;;;;;;;;5004332;28;20021;-73
2022/05/04 11:18:33;;;;;;;14.93;7.97;;;;;;;;;;4999911;28;20557;-74
2022/05/04 11:21:00;;;;;;;16.42;8.38;;;;;;;;;;5005697;28;20025;-73
2022/05/04 11:23:26;;;;;;;16.13;8.98;;;;;;;;;;5007642;28;20510;-74
2022/05/04 11:25:51;;;;;;;16.73;8.63;;;;;;;;;;5000942;28;20032;-74
2022/05/04 11:28:23;;;;;;;16.30;7.65;;;;;;;;;;5004553;28;20022;-74
2022/05/04 11:30:48;;;;;;;18.05;7.95;;;;;;;;;;5006919;28;20119;-73
2022/05/04 11:33:14;;;;;;;15.63;8.17;;;;;;;;;;5006326;28;20030;-74
2022/05/04 11:35:41;;;;;;;14.90;9.27;;;;;;;;;;5002618;28;20363;-74
2022/05/04 11:38:06;;;;;;;17.70;8.45;;;;;;;;;;5002722;28;20473;-74
2022/05/04 11:40:31;;;;;;;13.70;8.57;;;;;;;;;;5002617;28;20041;-74
2022/05/04 11:42:56;;;;;;;16.70;9.55;;;;;;;;;;5001811;28;20036;-73
2022/05/04 11:45:21;;;;;;;13.10;7.97;;;;;;;;;;5006311;28;20485;-73
2022/05/04 11:47:46;;;;;;;15.10;8.47;;;;;;;;;;5000919;28;20025;-74
2022/05/04 11:50:12;;;;;;;10.60;7.63;;;;;;;;;;5007301;28;20392;-74
2022/05/04 11:52:37;;;;;;;18.05;9.27;;;;;;;;;;5007340;28;20026;-73
2022/05/04 11:55:03;;;;;;;17.83;8.57;;;;;;;;;;5005119;28;20096;-74
2022/05/04 11:57:28;;;;;;;13.82;7.88;;;;;;;;;;5001012;28;20026;-73
2022/05/04 11:59:53;;;;;;;13.90;8.47;;;;;;;;;;5004490;28;20485;-73
2022/05/04 12:02:19;;;;;;;16.97;8.13;;;;;;;;;;5008233;28;20496;-73
2022/05/04 12:04:47;;;;;;;11.38;7.78;;;;;;;;;;4998172;28;20378;-73
2022/05/04 12:07:12;;;;;;;13.60;8.15;;;;;;;;;;5011355;28;20021;-74
2022/05/04 12:09:37;;;;;;;14.83;7.60;;;;;;;;;;5004259;28;20369;-74
2022/05/04 12:12:03;;;;;;;16.37;8.50;;;;;;;;;;5003697;28;20252;-74
2022/05/04 12:14:28;;;;;;;15.85;8.23;;;;;;;;;;5004718;28;20080;-74
2022/05/04 12:16:54;;;;;;;16.40;7.93;;;;;;;;;;5001028;28;20398;-74
2022/05/04 12:19:19;;;;;;;12.43;8.80;;;;;;;;;;5003571;28;20068;-72
2022/05/04 12:21:44;;;;;;;22.37;9.23;;;;;;;;;;4997469;28;20025;-75
2022/05/04 12:24:12;;;;;;;13.25;7.57;;;;;;;;;;4992664;28;20809;-73
2022/05/04 12:26:37;;;;;;;11.38;7.70;;;;;;;;;;5002947;28;20054;-74
2022/05/04 12:34:31;;;;;;;9.65;6.82;;;;;;;;;;4996489;28;20105;-74
2022/05/04 12:36:59;;;;;;;11.30;8.20;;;;;;;;;;4999100;28;20078;-74
2022/05/04 12:39:25;;;;;;;13.85;8.43;;;;;;;;;;4999420;28;20457;-74
2022/05/04 12:41:53;;;;;;;10.88;8.23;;;;;;;;;;4997642;28;20079;-74
2022/05/04 12:44:18;;;;;;;13.32;7.72;;;;;;;;;;5009844;28;20084;-74
2022/05/04 12:46:51;;;;;;;13.93;8.38;;;;;;;;;;5002233;28;20022;-75
2022/05/04 12:49:17;;;;;;;15.73;8.93;;;;;;;;;;5006886;28;20037;-74
2022/05/04 12:51:43;;;;;;;14.65;8.90;;;;;;;;;;5010653;28;20511;-74
2022/05/04 12:54:08;;;;;;;16.23;7.80;;;;;;;;;;5005438;28;20149;-74
2022/05/04 12:56:46;;;;;;;13.48;8.65;;;;;;;;;;4998756;28;20053;-74
2022/05/04 12:59:12;;;;;;;16.55;7.68;;;;;;;;;;4999220;28;20384;-74
2022/05/04 13:01:37;;;;;;;12.93;7.53;;;;;;;;;;5011765;28;20025;-74
2022/05/04 13:04:03;;;;;;;16.10;8.60;;;;;;;;;;5005867;28;20018;-74
2022/05/04 13:06:28;;;;;;;12.57;7.97;;;;;;;;;;5016424;28;20033;-74
2022/05/04 13:08:53;;;;;;;14.10;8.30;;;;;;;;;;4992035;28;20034;-74
2022/05/04 13:11:19;;;;;;;15.17;8.33;;;;;;;;;;5011188;28;20731;-74
2022/05/04 13:13:44;;;;;;;15.82;8.23;;;;;;;;;;5012793;28;21449;-74
2022/05/04 13:16:10;;;;;;;13.13;7.65;;;;;;;;;;5011979;28;20482;-74
2022/05/04 13:18:35;;;;;;;11.45;7.53;;;;;;;;;;5005169;28;20116;-74
2022/05/04 13:21:01;;;;;;;14.30;8.30;;;;;;;;;;5003627;28;20033;-72
2022/05/04 13:23:26;;;;;;;10.43;7.43;;;;;;;;;;5008977;28;20321;-72
2022/05/04 13:25:51;;;;;;;13.15;8.27;;;;;;;;;;5006230;28;20398;-73
2022/05/04 13:28:16;;;;;;;15.95;7.68;;;;;;;;;;5012802;28;20385;-72
2022/05/04 13:30:42;;;;;;;14.70;8.30;;;;;;;;;;5005476;28;20037;-72
2022/05/04 13:33:07;;;;;;;15.88;7.28;;;;;;;;;;5006438;28;20051;-74
2022/05/04 13:35:32;;;;;;;13.70;7.60;;;;;;;;;;5013498;28;20108;-74
2022/05/04 13:37:58;;;;;;;8.33;7.13;;;;;;;;;;5005085;28;20105;-72
2022/05/04 13:40:24;;;;;;;14.75;8.10;;;;;;;;;;5010920;28;20170;-74
2022/05/04 13:42:50;;;;;;;16.40;9.38;;;;;;;;;;5019961;28;20204;-74
2022/05/04 13:45:15;;;;;;;14.55;8.15;;;;;;;;;;5012035;28;20053;-74
2022/05/04 13:47:40;;;;;;;15.30;7.73;;;;;;;;;;5000600;28;20100;-74
2022/05/04 13:55:34;;;;;;;15.55;7.65;;;;;;;;;;5006343;28;20033;-74
2022/05/04 13:57:59;;;;;;;11.80;7.63;;;;;;;;;;4999334;28;20022;-74
2022/05/04 14:00:24;;;;;;;10.88;7.63;;;;;;;;;;5008676;28;20394;-74
2022/05/04 14:02:49;;;;;;;12.80;7.53;;;;;;;;;;5005491;28;20105;-74
2022/05/04 14:05:15;;;;;;;19.25;7.93;;;;;;;;;;5000526;28;20033;-75
2022/05/04 14:07:40;;;;;;;14.93;8.55;;;;;;;;;;5002381;28;20095;-73
2022/05/04 14:10:05;;;;;;;16.80;9.17;;;;;;;;;;5002777;28;20030;-73
2022/05/04 14:12:30;;;;;;;19.25;9.35;;;;;;;;;;5006979;28;20030;-73
2022/05/04 14:15:01;;;;;;;13.83;7.83;;;;;;;;;;5005497;28;20463;-73
2022/05/04 14:17:26;;;;;;;13.18;8.65;;;;;;;;;;5006530;28;20057;-73
2022/05/04 14:19:52;;;;;;;14.37;8.13;;;;;;;;;;5015389;28;20099;-73
2022/05/04 14:22:17;;;;;;;18.20;9.48;;;;;;;;;;5004425;28;20386;-74
2022/05/04 14:24:43;;;;;;;17.30;9.70;;;;;;;;;;5002284;28;20391;-73
2022/05/04 14:27:08;;;;;;;19.47;10.70;;;;;;;;;;5002955;28;20029;-74
2022/05/04 14:29:33;;;;;;;13.60;9.38;;;;;;;;;;5004986;28;20279;-73
2022/05/04 14:31:58;;;;;;;16.52;7.90;;;;;;;;;;5006314;28;20026;-72
2022/05/04 14:34:24;;;;;;;18.07;8.03;;;;;;;;;;5003082;28;20416;-72
2022/05/04 14:36:50;;;;;;;19.52;8.20;;;;;;;;;;5002164;28;20444;-74
2022/05/04 14:39:16;;;;;;;14.98;8.20;;;;;;;;;;5002427;28;20343;-71
2022/05/04 14:41:41;;;;;;;14.73;9.02;;;;;;;;;;4994505;28;20451;-71
2022/05/04 14:44:06;;;;;;;14.95;9.40;;;;;;;;;;5002183;28;20041;-71
2022/05/04 14:46:31;;;;;;;13.05;7.82;;;;;;;;;;5000285;28;20513;-72
2022/05/04 14:48:56;;;;;;;14.82;10.20;;;;;;;;;;4999240;28;20084;-71
2022/05/04 14:51:22;;;;;;;17.73;8.48;;;;;;;;;;5001014;28;20037;-70
2022/05/04 14:53:51;;;;;;;22.13;9.97;;;;;;;;;;4993518;28;20504;-71
2022/05/04 14:56:16;;;;;;;17.25;9.85;;;;;;;;;;4998419;28;20372;-71
2022/05/04 14:58:41;;;;;;;13.93;7.90;;;;;;;;;;5004465;28;20026;-71
2022/05/04 15:01:06;;;;;;;11.73;7.63;;;;;;;;;;5001197;28;20068;-72
2022/05/04 15:06:15;;;;;;;;;;;;;;;;;;5004358;28;20029;-72
2022/05/04 15:08:40;;;;;;;13.00;7.60;;;;;;;;;;5000061;28;19921;-72
2022/05/04 15:11:06;;;;;;;15.38;7.68;;;;;;;;;;5006541;28;20076;-72
2022/05/04 15:13:31;;;;;;;10.85;5.95;;;;;;;;;;5005373;28;20041;-72